Time;durP1;ratioP1;P1;durP2;ratioP2;P2;SDS_P1;SDS_P2;PMS_P1;PMS_P2;Temp;Humidity;BMP_temperature;BMP_pressure;BME280_temperature;BME280_humidity;BME280_pressure;Samples;Min_cycle;Max_cycle;Signal;HPM_P1;HPM_P2
2021/11/18 00:00:22;;;;;;;15.77;8.57;;;;;;;6.72;nan;101682.97;4989142;28;20038;-77
2021/11/18 00:02:49;;;;;;;12.38;7.78;;;;;;;6.68;nan;101680.63;4989908;28;20031;-78
2021/11/18 00:05:15;;;;;;;15.25;8.50;;;;;;;6.66;nan;101675.47;4988877;28;20042;-77
2021/11/18 00:07:49;;;;;;;18.85;8.77;;;;;;;6.69;nan;101683.16;4990004;28;20099;-78
2021/11/18 00:10:21;;;;;;;16.17;9.15;;;;;;;6.72;nan;101682.09;4988261;28;20034;-78
2021/11/18 00:12:49;;;;;;;15.65;8.02;;;;;;;6.77;nan;101688.78;4989527;28;20035;-78
2021/11/18 00:15:16;;;;;;;16.20;8.80;;;;;;;6.75;nan;101687.19;4989843;28;20499;-78
2021/11/18 00:17:41;;;;;;;12.65;7.78;;;;;;;6.76;nan;101687.06;5002194;28;20042;-77
2021/11/18 00:20:10;;;;;;;15.70;8.73;;;;;;;6.75;nan;101681.94;4991415;28;20046;-78
2021/11/18 00:22:35;;;;;;;16.27;8.60;;;;;;;6.77;nan;101672.16;4990483;28;20042;-78
2021/11/18 00:25:01;;;;;;;13.07;7.88;;;;;;;6.76;nan;101663.41;4990600;28;20450;-77
2021/11/18 00:27:27;;;;;;;14.13;7.93;;;;;;;6.68;nan;101655.19;4991687;28;20069;-77
2021/11/18 00:29:53;;;;;;;14.82;8.40;;;;;;;6.72;nan;101658.44;4990906;28;20058;-78
2021/11/18 00:32:19;;;;;;;14.65;8.35;;;;;;;6.71;nan;101654.16;4991001;28;20089;-78
2021/11/18 00:34:45;;;;;;;13.43;8.27;;;;;;;6.71;nan;101656.78;4985483;28;20447;-77
2021/11/18 00:37:10;;;;;;;13.80;8.13;;;;;;;6.71;nan;101651.53;4970891;28;20034;-78
2021/11/18 00:39:36;;;;;;;14.52;8.35;;;;;;;6.71;nan;101662.03;4971211;28;20089;-78
2021/11/18 00:42:01;;;;;;;15.63;9.20;;;;;;;6.68;nan;101664.88;4970977;28;20066;-78
2021/11/18 00:44:27;;;;;;;14.73;8.10;;;;;;;6.63;nan;101670.41;4968951;28;20051;-78
2021/11/18 00:46:54;;;;;;;13.77;7.82;;;;;;;6.67;nan;101677.16;4977372;28;20041;-77
2021/11/18 00:49:19;;;;;;;15.30;8.45;;;;;;;6.71;nan;101680.44;4992688;28;20038;-78
2021/11/18 00:51:45;;;;;;;15.82;8.55;;;;;;;6.71;nan;101678.63;4993079;28;20161;-78
2021/11/18 00:54:11;;;;;;;15.27;8.48;;;;;;;6.76;nan;101680.97;4993087;28;20197;-78
2021/11/18 00:56:36;;;;;;;15.13;7.95;;;;;;;6.73;nan;101689.91;4992567;28;20556;-77
2021/11/18 00:59:02;;;;;;;15.20;7.95;;;;;;;6.71;nan;101697.03;4993339;28;20136;-78
2021/11/18 01:01:31;;;;;;;16.60;8.55;;;;;;;6.68;nan;101694.63;4993716;28;20030;-77
2021/11/18 01:03:58;;;;;;;14.57;8.48;;;;;;;6.68;nan;101697.25;4993059;28;20042;-78
2021/11/18 01:06:23;;;;;;;14.00;8.32;;;;;;;6.65;nan;101701.84;4991520;28;20238;-77
2021/11/18 01:08:49;;;;;;;13.05;7.22;;;;;;;6.61;nan;101705.63;4973987;28;20023;-78
2021/11/18 01:11:24;;;;;;;12.90;8.57;;;;;;;6.56;nan;101712.00;4991060;28;20039;-78
2021/11/18 01:13:51;;;;;;;16.50;8.70;;;;;;;6.51;nan;101708.00;4994106;28;20038;-77
2021/11/18 01:16:21;;;;;;;15.07;8.45;;;;;;;6.49;nan;101701.97;4994237;28;20045;-78
2021/11/18 01:18:47;;;;;;;16.87;9.23;;;;;;;6.46;nan;101697.78;4994107;28;20376;-77
2021/11/18 01:21:15;;;;;;;14.98;9.23;;;;;;;6.44;nan;101701.44;4993393;28;20089;-78
2021/11/18 01:23:41;;;;;;;13.98;9.00;;;;;;;6.40;nan;101719.16;4993163;28;20038;-78
2021/11/18 01:26:10;;;;;;;14.73;9.27;;;;;;;6.36;nan;101715.03;4992416;28;20036;-78
2021/11/18 01:28:35;;;;;;;15.18;8.77;;;;;;;6.33;nan;101709.97;4992994;28;20391;-78
2021/11/18 01:31:01;;;;;;;14.73;9.32;;;;;;;6.32;nan;101710.91;4993829;28;20030;-78
2021/11/18 01:33:28;;;;;;;13.68;8.43;;;;;;;6.30;nan;101715.41;4991516;28;20385;-78
2021/11/18 01:35:54;;;;;;;15.73;8.65;;;;;;;6.27;nan;101721.72;4992225;28;20129;-78
2021/11/18 01:38:20;;;;;;;16.80;9.93;;;;;;;6.38;nan;101716.63;5007172;28;20031;-78
2021/11/18 01:40:53;;;;;;;18.05;9.75;;;;;;;6.40;nan;101716.53;4992915;28;20031;-78
2021/11/18 01:43:21;;;;;;;14.40;8.43;;;;;;;6.37;nan;101719.34;4992545;28;20030;-78
2021/11/18 01:45:47;;;;;;;16.83;9.43;;;;;;;6.39;nan;101717.47;4992394;28;20038;-78
2021/11/18 01:48:12;;;;;;;15.77;9.45;;;;;;;6.37;nan;101720.19;4992267;28;20503;-78
2021/11/18 01:50:41;;;;;;;18.08;10.30;;;;;;;6.45;nan;101722.34;4998152;28;20037;-78
2021/11/18 01:53:12;;;;;;;21.40;11.50;;;;;;;6.47;nan;101730.97;4992325;28;20031;-78
2021/11/18 01:55:40;;;;;;;16.58;9.95;;;;;;;6.42;nan;101730.41;4990663;28;20117;-78
2021/11/18 01:58:06;;;;;;;15.52;9.70;;;;;;;6.49;nan;101734.34;4991738;28;20642;-78
2021/11/18 02:00:40;;;;;;;17.33;10.32;;;;;;;6.54;nan;101726.19;4991991;28;20117;-77
2021/11/18 02:03:05;;;;;;;18.08;10.65;;;;;;;6.54;nan;101721.75;4991134;28;20026;-78
2021/11/18 02:05:34;;;;;;;19.02;10.48;;;;;;;6.52;nan;101730.69;4992657;28;20042;-78
2021/11/18 02:08:00;;;;;;;19.05;10.82;;;;;;;6.54;nan;101728.81;4992242;28;20034;-78
2021/11/18 02:10:30;;;;;;;18.30;10.98;;;;;;;6.51;nan;101731.63;4990584;28;20117;-79
2021/11/18 02:12:57;;;;;;;18.65;10.23;;;;;;;6.52;nan;101722.81;4992144;28;20034;-76
2021/11/18 02:15:57;;;;;;;19.25;11.75;;;;;;;6.48;nan;101727.38;4989997;28;20105;-76
2021/11/18 02:18:26;;;;;;;21.52;11.32;;;;;;;6.50;nan;101735.19;4980884;28;20046;-77
2021/11/18 02:20:53;;;;;;;16.23;9.82;;;;;;;6.41;nan;101739.22;4992145;28;20038;-76
2021/11/18 02:23:23;;;;;;;18.60;10.77;;;;;;;6.46;nan;101738.94;4991070;28;20034;-77
2021/11/18 02:25:50;;;;;;;19.50;11.13;;;;;;;6.51;nan;101735.09;4989639;28;20041;-77
2021/11/18 02:28:18;;;;;;;16.65;10.75;;;;;;;6.45;nan;101727.59;4990713;28;20518;-77
2021/11/18 02:30:45;;;;;;;18.45;10.65;;;;;;;6.49;nan;101730.88;4990437;28;20041;-77
2021/11/18 02:33:14;;;;;;;18.27;11.10;;;;;;;6.52;nan;101728.06;4991091;28;20133;-77
2021/11/18 02:35:40;;;;;;;19.95;11.57;;;;;;;6.52;nan;101730.69;4998766;28;20026;-77
2021/11/18 02:38:07;;;;;;;19.65;10.98;;;;;;;6.54;nan;101734.91;4995937;28;20415;-77
2021/11/18 02:40:33;;;;;;;19.50;11.60;;;;;;;6.55;nan;101744.50;4986768;28;20046;-77
2021/11/18 02:43:00;;;;;;;17.55;11.07;;;;;;;6.58;nan;101744.28;4972211;28;20398;-76
2021/11/18 02:45:31;;;;;;;18.52;10.65;;;;;;;6.55;nan;101733.97;4971033;28;20403;-77
2021/11/18 02:47:57;;;;;;;;;;;;;;;6.59;nan;101748.59;4972565;28;20570;-77
2021/11/18 02:50:27;;;;;;;20.17;11.65;;;;;;;6.66;nan;101756.13;4971750;28;19933;-78
2021/11/18 02:52:53;;;;;;;18.25;10.65;;;;;;;6.59;nan;101755.66;4986199;28;20041;-77
2021/11/18 02:55:28;;;;;;;20.08;11.65;;;;;;;6.73;nan;101762.66;4971931;28;20026;-77
2021/11/18 02:57:55;;;;;;;16.02;10.02;;;;;;;6.67;nan;101749.91;4984991;28;20396;-77
2021/11/18 03:00:26;;;;;;;18.83;11.05;;;;;;;6.67;nan;101744.63;4991251;28;20034;-77
2021/11/18 03:02:52;;;;;;;20.40;10.85;;;;;;;6.69;nan;101742.75;4988919;28;20041;-77
2021/11/18 03:05:20;;;;;;;17.85;10.13;;;;;;;6.70;nan;101737.44;4990403;28;20034;-77
2021/11/18 03:07:46;;;;;;;22.77;11.38;;;;;;;6.74;nan;101745.94;4991321;28;20034;-77
2021/11/18 03:10:13;;;;;;;18.65;10.65;;;;;;;6.69;nan;101751.50;4990536;28;20046;-77
2021/11/18 03:12:39;;;;;;;17.88;9.77;;;;;;;6.70;nan;101763.72;4990565;28;20065;-77
2021/11/18 03:15:08;;;;;;;18.75;10.77;;;;;;;6.70;nan;101760.25;4991017;28;20026;-77
2021/11/18 03:17:33;;;;;;;20.38;10.45;;;;;;;6.68;nan;101762.97;4993173;28;20128;-77
2021/11/18 03:19:58;;;;;;;21.27;11.07;;;;;;;6.76;nan;101767.72;4990528;28;20034;-77
2021/11/18 03:22:24;;;;;;;19.52;10.55;;;;;;;6.72;nan;101774.09;4990682;28;20638;-77
2021/11/18 03:24:49;;;;;;;18.23;10.95;;;;;;;6.74;nan;101778.31;4989793;28;20042;-77
2021/11/18 03:27:14;;;;;;;21.20;10.90;;;;;;;6.77;nan;101766.81;4989444;28;20041;-77
2021/11/18 03:29:40;;;;;;;21.73;11.60;;;;;;;6.79;nan;101759.63;4988766;28;20123;-77
2021/11/18 03:32:05;;;;;;;19.45;12.05;;;;;;;6.79;nan;101768.41;4989818;28;20073;-77
2021/11/18 03:34:32;;;;;;;18.25;10.93;;;;;;;6.71;nan;101786.41;4989519;28;20105;-77
2021/11/18 03:36:58;;;;;;;21.98;11.50;;;;;;;6.80;nan;101787.63;4988242;28;20030;-77
2021/11/18 03:39:25;;;;;;;21.55;11.77;;;;;;;6.80;nan;101783.22;4988717;28;20041;-77
2021/11/18 03:41:54;;;;;;;21.35;11.60;;;;;;;6.84;nan;101786.50;4990620;28;20399;-77
2021/11/18 03:44:23;;;;;;;19.00;10.18;;;;;;;6.79;nan;101784.16;4988055;28;20034;-77
2021/11/18 03:47:00;;;;;;;20.83;11.55;;;;;;;6.83;nan;101786.59;4990760;28;20030;-77
2021/11/18 03:49:27;;;;;;;21.85;10.93;;;;;;;6.85;nan;101776.81;4992602;28;20045;-77
2021/11/18 03:51:55;;;;;;;18.38;11.43;;;;;;;6.83;nan;101783.97;4994683;28;20113;-77
2021/11/18 03:54:23;;;;;;;19.30;11.27;;;;;;;6.79;nan;101786.78;4989612;28;20117;-78
2021/11/18 03:56:50;;;;;;;20.13;11.13;;;;;;;6.77;nan;101786.03;4990399;28;20431;-76
2021/11/18 03:59:23;;;;;;;19.17;11.00;;;;;;;6.77;nan;101791.31;4989276;28;20049;-77
2021/11/18 04:01:49;;;;;;;18.30;10.20;;;;;;;6.71;nan;101798.72;4989642;28;20060;-77
2021/11/18 04:04:20;;;;;;;17.05;10.23;;;;;;;6.68;nan;101802.38;5004755;28;20042;-77
2021/11/18 04:06:47;;;;;;;21.38;11.20;;;;;;;6.76;nan;101805.38;4989690;28;20034;-77
2021/11/18 04:09:13;;;;;;;21.55;10.73;;;;;;;6.78;nan;101797.41;4990510;28;20037;-77
2021/11/18 04:11:41;;;;;;;21.02;11.57;;;;;;;6.77;nan;101796.56;4990679;28;20042;-77
2021/11/18 04:14:08;;;;;;;19.77;10.70;;;;;;;6.75;nan;101789.72;4990461;28;20045;-77
2021/11/18 04:16:34;;;;;;;19.33;10.25;;;;;;;6.67;nan;101799.84;4999258;28;20037;-76
2021/11/18 04:19:00;;;;;;;18.23;10.57;;;;;;;6.63;nan;101803.63;5010157;28;20030;-77
2021/11/18 04:21:31;;;;;;;18.40;10.60;;;;;;;6.69;nan;101813.75;4996300;28;20308;-77
2021/11/18 04:23:57;;;;;;;20.20;10.98;;;;;;;6.63;nan;101816.75;4988256;28;20038;-77
2021/11/18 04:26:23;;;;;;;18.48;10.73;;;;;;;6.67;nan;101813.81;5004834;28;20511;-77
2021/11/18 04:28:48;;;;;;;20.48;11.13;;;;;;;6.69;nan;101809.31;4991010;28;20065;-77
2021/11/18 04:31:17;;;;;;;20.67;10.25;;;;;;;6.64;nan;101811.38;4993422;28;20026;-78
2021/11/18 04:33:43;;;;;;;16.27;10.13;;;;;;;6.59;nan;101809.03;4993860;28;20041;-77
2021/11/18 04:36:11;;;;;;;17.83;10.32;;;;;;;6.56;nan;101803.97;5004322;28;20026;-76
2021/11/18 04:38:37;;;;;;;18.73;10.90;;;;;;;6.62;nan;101813.25;5005237;28;20455;-77
2021/11/18 04:41:03;;;;;;;18.88;9.90;;;;;;;6.53;nan;101814.69;4994169;28;20035;-76
2021/11/18 04:43:29;;;;;;;18.45;11.32;;;;;;;6.58;nan;101817.03;4993338;28;20043;-77
2021/11/18 04:45:55;;;;;;;16.67;9.35;;;;;;;6.53;nan;101814.69;4993579;28;20089;-77
2021/11/18 04:48:22;;;;;;;18.35;10.20;;;;;;;6.51;nan;101811.31;4992789;28;20041;-77
2021/11/18 04:50:48;;;;;;;17.80;10.30;;;;;;;6.47;nan;101814.22;5001075;28;20053;-77
2021/11/18 04:53:15;;;;;;;18.25;10.20;;;;;;;6.47;nan;101819.47;5008377;28;20503;-76
2021/11/18 04:55:42;;;;;;;16.73;10.75;;;;;;;6.44;nan;101815.25;4993218;28;20035;-77
2021/11/18 04:58:07;;;;;;;18.05;10.30;;;;;;;6.42;nan;101822.38;4992510;28;20113;-77
2021/11/18 05:00:59;;;;;;;18.65;10.02;;;;;;;6.28;nan;101817.13;4993953;28;20150;-77
2021/11/18 05:03:27;;;;;;;19.33;9.88;;;;;;;6.27;nan;101829.41;4991896;28;20097;-77
2021/11/18 05:05:53;;;;;;;16.20;9.68;;;;;;;6.19;nan;101833.41;4993505;28;20034;-77
2021/11/18 05:08:19;;;;;;;15.75;8.80;;;;;;;6.12;nan;101830.31;4991153;28;20034;-77
2021/11/18 05:10:47;;;;;;;17.15;9.23;;;;;;;6.10;nan;101832.16;4993639;28;20046;-77
2021/11/18 05:13:13;;;;;;;18.33;10.15;;;;;;;6.07;nan;101838.44;4993766;28;20057;-77
2021/11/18 05:15:41;;;;;;;17.85;9.52;;;;;;;6.04;nan;101838.63;4992764;28;20345;-77
2021/11/18 05:18:07;;;;;;;15.45;9.98;;;;;;;6.03;nan;101828.22;4991734;28;20038;-77
2021/11/18 05:20:34;;;;;;;18.02;9.55;;;;;;;5.99;nan;101824.94;4992739;28;20041;-76
2021/11/18 05:23:00;;;;;;;19.15;10.43;;;;;;;5.99;nan;101830.19;4991450;28;20037;-77
2021/11/18 05:25:30;;;;;;;22.15;11.88;;;;;;;6.01;nan;101828.31;4992492;28;20038;-77
2021/11/18 05:27:56;;;;;;;18.70;9.52;;;;;;;5.95;nan;101821.63;4992337;28;20125;-77
2021/11/18 05:30:26;;;;;;;19.17;9.82;;;;;;;5.98;nan;101823.22;4992572;28;21423;-77
2021/11/18 05:32:52;;;;;;;18.50;9.93;;;;;;;5.95;nan;101819.00;4992874;28;20038;-77
2021/11/18 05:35:18;;;;;;;18.42;9.60;;;;;;;5.93;nan;101825.25;4996306;28;20033;-77
2021/11/18 05:37:43;;;;;;;16.58;9.73;;;;;;;5.88;nan;101824.69;5007861;28;20092;-76
2021/11/18 05:40:10;;;;;;;18.67;9.85;;;;;;;5.86;nan;101823.91;4992128;28;20446;-77
2021/11/18 05:42:38;;;;;;;17.70;9.90;;;;;;;5.81;nan;101829.44;4991408;28;20038;-77
2021/11/18 05:45:06;;;;;;;19.10;10.02;;;;;;;5.74;nan;101831.59;4992337;28;20388;-78
2021/11/18 05:47:31;;;;;;;17.88;10.15;;;;;;;5.64;nan;101837.44;4993002;28;20538;-77
2021/11/18 05:49:59;;;;;;;18.50;9.50;;;;;;;5.65;nan;101842.63;4993097;28;20034;-77
2021/11/18 05:52:24;;;;;;;17.02;10.13;;;;;;;5.62;nan;101845.38;4991848;28;20054;-77
2021/11/18 05:54:50;;;;;;;14.65;8.52;;;;;;;5.53;nan;101843.31;4991668;28;20098;-77
2021/11/18 05:57:15;;;;;;;14.20;8.43;;;;;;;5.47;nan;101854.13;4992922;28;20234;-76
2021/11/18 05:59:40;;;;;;;13.70;7.82;;;;;;;5.43;nan;101858.69;4990371;28;20036;-75
2021/11/18 06:02:06;;;;;;;15.35;8.02;;;;;;;5.43;nan;101855.25;4991568;28;20034;-76
2021/11/18 06:04:31;;;;;;;14.90;8.30;;;;;;;5.38;nan;101858.13;4991891;28;20088;-76
2021/11/18 06:06:56;;;;;;;13.18;7.97;;;;;;;5.34;nan;101859.25;4992903;28;20034;-75
2021/11/18 06:09:22;;;;;;;13.65;7.78;;;;;;;5.29;nan;101856.88;4991434;28;20046;-76
2021/11/18 06:11:47;;;;;;;13.10;7.60;;;;;;;5.28;nan;101852.53;4989065;28;20080;-76
2021/11/18 06:14:13;;;;;;;17.60;9.63;;;;;;;5.36;nan;101852.09;4991175;28;20066;-76
2021/11/18 06:16:40;;;;;;;18.92;10.02;;;;;;;5.35;nan;101849.59;5001322;28;20036;-75
2021/11/18 06:19:05;;;;;;;16.95;10.05;;;;;;;5.36;nan;101857.34;4994451;28;20538;-76
2021/11/18 06:21:36;;;;;;;16.10;9.57;;;;;;;5.37;nan;101852.97;4990344;28;20046;-76
2021/11/18 06:24:03;;;;;;;19.67;10.50;;;;;;;5.37;nan;101861.69;4991767;28;20034;-75
2021/11/18 06:26:29;;;;;;;18.77;10.07;;;;;;;5.38;nan;101870.38;4991889;28;20557;-76
2021/11/18 06:28:56;;;;;;;15.25;9.73;;;;;;;5.36;nan;101867.00;4991385;28;20030;-76
2021/11/18 06:31:21;;;;;;;19.80;10.55;;;;;;;5.37;nan;101860.84;4990777;28;20045;-76
2021/11/18 06:33:47;;;;;;;15.07;9.50;;;;;;;5.35;nan;101860.06;4991881;28;20030;-75
2021/11/18 06:36:13;;;;;;;18.45;9.77;;;;;;;5.38;nan;101873.84;4990802;28;20026;-76
2021/11/18 06:38:41;;;;;;;15.57;9.20;;;;;;;5.42;nan;101864.06;4990574;28;20113;-75
2021/11/18 06:41:08;;;;;;;19.67;11.10;;;;;;;5.44;nan;101877.94;4989195;28;20035;-75
2021/11/18 06:43:34;;;;;;;21.88;11.93;;;;;;;5.44;nan;101870.91;4997667;28;20125;-76
2021/11/18 06:46:00;;;;;;;19.10;10.32;;;;;;;5.38;nan;101889.59;4990186;28;20115;-76
2021/11/18 06:48:33;;;;;;;15.27;9.27;;;;;;;5.31;nan;101889.09;4988289;28;20038;-75
2021/11/18 06:51:06;;;;;;;16.92;9.32;;;;;;;5.27;nan;101886.72;4995594;28;20042;-75
2021/11/18 06:53:31;;;;;;;16.75;9.35;;;;;;;5.30;nan;101899.66;4987678;28;20038;-76
2021/11/18 06:55:58;;;;;;;19.35;10.90;;;;;;;5.37;nan;101901.03;4990818;28;20392;-75
2021/11/18 06:58:23;;;;;;;17.42;11.15;;;;;;;5.41;nan;101904.31;4990362;28;20034;-75
2021/11/18 07:00:49;;;;;;;18.40;10.30;;;;;;;5.43;nan;101905.06;4988394;28;20490;-75
2021/11/18 07:03:15;;;;;;;17.40;9.75;;;;;;;5.45;nan;101911.94;4999366;28;20034;-75
2021/11/18 07:05:40;;;;;;;17.02;9.98;;;;;;;5.42;nan;101908.66;4985905;28;20034;-75
2021/11/18 07:08:07;;;;;;;16.55;9.85;;;;;;;5.48;nan;101916.16;4990228;28;20419;-75
2021/11/18 07:10:33;;;;;;;18.17;10.43;;;;;;;5.51;nan;101916.84;4991969;28;20030;-75
2021/11/18 07:12:59;;;;;;;16.13;10.15;;;;;;;5.57;nan;101923.53;4989824;28;20031;-75
2021/11/18 07:15:26;;;;;;;20.20;9.85;;;;;;;5.59;nan;101924.28;4990670;28;20390;-76
2021/11/18 07:17:55;;;;;;;16.67;9.32;;;;;;;5.58;nan;101922.63;4989871;28;20062;-75
2021/11/18 07:20:20;;;;;;;17.73;11.52;;;;;;;5.55;nan;101928.00;4986307;28;20039;-76
2021/11/18 07:22:46;;;;;;;18.40;10.25;;;;;;;5.58;nan;101929.63;4990452;28;20093;-76
2021/11/18 07:25:16;;;;;;;23.33;12.93;;;;;;;5.70;nan;101931.59;4988939;28;20615;-76
2021/11/18 07:27:42;;;;;;;24.52;12.90;;;;;;;5.71;nan;101934.09;4988468;28;20038;-75
2021/11/18 07:30:08;;;;;;;20.90;11.65;;;;;;;5.70;nan;101929.81;4988594;28;20033;-75
2021/11/18 07:32:34;;;;;;;19.02;10.43;;;;;;;5.71;nan;101941.97;4989336;28;20034;-75
2021/11/18 07:35:00;;;;;;;19.27;11.20;;;;;;;5.74;nan;101939.19;4991905;28;20306;-75
2021/11/18 07:37:26;;;;;;;16.92;10.93;;;;;;;5.78;nan;101942.50;5005479;28;20109;-75
2021/11/18 07:39:51;;;;;;;20.85;11.45;;;;;;;5.82;nan;101945.81;4992378;28;20117;-75
2021/11/18 07:42:17;;;;;;;22.13;12.73;;;;;;;5.87;nan;101935.88;4997433;28;20038;-75
2021/11/18 07:44:43;;;;;;;21.92;12.65;;;;;;;5.93;nan;101940.78;4995579;28;20069;-75
2021/11/18 07:47:09;;;;;;;22.73;13.73;;;;;;;5.97;nan;101941.50;4983868;28;20573;-76
2021/11/18 07:49:34;;;;;;;20.02;12.40;;;;;;;5.94;nan;101935.47;4991108;28;20105;-76
2021/11/18 07:51:59;;;;;;;22.27;12.73;;;;;;;5.99;nan;101940.47;4992539;28;20034;-76
2021/11/18 07:54:25;;;;;;;20.48;11.93;;;;;;;5.99;nan;101950.13;4990609;28;20374;-76
2021/11/18 07:56:52;;;;;;;20.02;12.00;;;;;;;5.97;nan;101952.00;4992518;28;20038;-76
2021/11/18 07:59:18;;;;;;;18.38;11.88;;;;;;;6.01;nan;101949.09;4996666;28;20034;-76
2021/11/18 08:01:44;;;;;;;19.90;10.93;;;;;;;6.09;nan;101957.38;4989490;28;20302;-75
2021/11/18 08:04:10;;;;;;;19.25;11.75;;;;;;;6.23;nan;101971.53;4994405;28;20042;-76
2021/11/18 08:06:36;;;;;;;23.85;12.65;;;;;;;6.31;nan;101961.41;4994500;28;20084;-76
2021/11/18 08:09:02;;;;;;;23.25;13.95;;;;;;;6.42;nan;101960.78;4988741;28;20045;-76
2021/11/18 08:11:34;;;;;;;26.50;13.48;;;;;;;6.51;nan;101952.38;5000460;28;20041;-76
2021/11/18 08:14:01;;;;;;;22.90;13.73;;;;;;;6.58;nan;101944.03;4998373;28;20029;-76
2021/11/18 08:16:27;;;;;;;22.92;12.88;;;;;;;6.61;nan;101947.41;4993966;28;20129;-76
2021/11/18 08:18:52;;;;;;;22.10;13.43;;;;;;;6.66;nan;101950.63;4989388;28;20042;-76
2021/11/18 08:21:18;;;;;;;29.10;13.45;;;;;;;6.73;nan;101955.41;4989535;28;20506;-76
2021/11/18 08:23:44;;;;;;;22.00;12.75;;;;;;;6.79;nan;101960.31;4993657;28;20030;-76
2021/11/18 08:26:12;;;;;;;22.88;13.57;;;;;;;6.84;nan;101967.06;4987530;28;20496;-76
2021/11/18 08:28:38;;;;;;;21.33;12.50;;;;;;;6.88;nan;101965.94;4988731;28;20041;-76
2021/11/18 08:31:05;;;;;;;21.60;11.90;;;;;;;6.85;nan;101966.97;4989128;28;20038;-75
2021/11/18 08:33:31;;;;;;;24.52;13.43;;;;;;;6.94;nan;101976.94;4986869;28;20511;-76
2021/11/18 08:35:57;;;;;;;25.52;13.68;;;;;;;7.02;nan;101976.47;4992153;28;20035;-76
2021/11/18 08:38:23;;;;;;;24.02;12.50;;;;;;;7.05;nan;101976.28;4988859;28;20035;-76
2021/11/18 08:41:00;;;;;;;21.63;12.23;;;;;;;7.08;nan;101983.13;4995463;28;20034;-76
2021/11/18 08:43:25;;;;;;;22.92;12.65;;;;;;;7.09;nan;101985.69;4991272;28;20129;-76
2021/11/18 08:45:51;;;;;;;26.08;13.82;;;;;;;7.17;nan;101982.56;4987658;28;20027;-76
2021/11/18 08:48:16;;;;;;;24.48;12.70;;;;;;;7.27;nan;101985.47;4988648;28;20053;-76
2021/11/18 08:50:44;;;;;;;21.65;12.63;;;;;;;7.45;nan;101989.63;4989851;28;20038;-76
2021/11/18 08:53:11;;;;;;;19.45;11.38;;;;;;;7.50;nan;101979.66;4987045;28;20535;-76
2021/11/18 08:55:38;;;;;;;19.50;11.32;;;;;;;7.50;nan;101984.06;4989461;28;20041;-76
2021/11/18 08:58:06;;;;;;;21.15;11.27;;;;;;;7.47;nan;101979.00;4988189;28;20113;-76
2021/11/18 09:00:37;;;;;;;20.77;12.00;;;;;;;7.49;nan;101985.88;4989050;28;20381;-76
2021/11/18 09:03:03;;;;;;;20.05;11.75;;;;;;;7.51;nan;101983.13;4988735;28;20046;-76
2021/11/18 09:05:30;;;;;;;20.63;12.10;;;;;;;7.46;nan;101983.44;5003080;28;20041;-76
2021/11/18 09:07:56;;;;;;;21.88;11.88;;;;;;;7.49;nan;101985.03;4991044;28;20050;-77
2021/11/18 09:10:22;;;;;;;21.05;11.75;;;;;;;7.57;nan;101991.47;4989591;28;20052;-76
2021/11/18 09:12:47;;;;;;;18.67;11.02;;;;;;;7.48;nan;101989.41;4987824;28;20696;-76
2021/11/18 09:15:16;;;;;;;19.90;11.57;;;;;;;7.58;nan;102003.72;4991300;28;20061;-76
2021/11/18 09:17:41;;;;;;;18.58;10.90;;;;;;;7.49;nan;102006.91;4992628;28;20043;-74
2021/11/18 09:20:10;;;;;;;20.52;12.27;;;;;;;7.58;nan;102014.25;4992421;28;20049;-76
2021/11/18 09:22:36;;;;;;;21.95;11.50;;;;;;;7.62;nan;102004.34;4992665;28;20039;-76
2021/11/18 09:25:04;;;;;;;22.33;11.55;;;;;;;7.72;nan;102007.25;4992301;28;20064;-75
2021/11/18 09:27:41;;;;;;;18.77;11.10;;;;;;;7.68;nan;102006.63;4992811;28;20463;-77
2021/11/18 09:30:10;;;;;;;18.08;10.68;;;;;;;7.72;nan;102008.09;4992350;28;20331;-76
2021/11/18 09:32:37;;;;;;;18.90;11.00;;;;;;;7.74;nan;102011.47;4989657;28;20042;-76
2021/11/18 09:35:07;;;;;;;19.80;10.55;;;;;;;7.75;nan;102009.72;4993521;28;20030;-77
2021/11/18 09:37:33;;;;;;;16.25;10.05;;;;;;;7.77;nan;102011.31;4991363;28;20133;-77
2021/11/18 09:39:58;;;;;;;18.35;10.60;;;;;;;7.91;nan;102006.94;4992503;28;20118;-78
2021/11/18 09:42:36;;;;;;;19.58;10.40;;;;;;;7.96;nan;102010.13;4988748;28;20499;-77
2021/11/18 09:45:11;;;;;;;18.92;11.07;;;;;;;8.11;nan;102024.94;4992569;28;20458;-78
2021/11/18 09:47:42;;;;;;;18.30;10.40;;;;;;;8.13;nan;102017.78;4993231;28;20061;-78
2021/11/18 09:50:21;;;;;;;16.17;10.20;;;;;;;8.15;nan;102023.81;4993241;28;20471;-78
2021/11/18 09:53:02;;;;;;;19.73;9.90;;;;;;;8.12;nan;102015.25;4973365;28;20031;-78
2021/11/18 09:55:46;;;;;;;19.92;11.60;;;;;;;8.09;nan;102008.38;4984245;28;20550;-78
2021/11/18 09:58:41;;;;;;;16.83;10.45;;;;;;;8.02;nan;102012.38;4990828;28;20511;-78
2021/11/18 10:01:34;;;;;;;17.80;11.10;;;;;;;8.07;nan;102005.84;4991746;28;20522;-77
2021/11/18 10:04:20;;;;;;;20.13;10.43;;;;;;;8.03;nan;101999.09;4992506;28;20087;-76
2021/11/18 10:06:51;;;;;;;20.42;11.13;;;;;;;8.12;nan;102007.34;4991988;28;20034;-77
2021/11/18 10:09:26;;;;;;;17.85;10.30;;;;;;;8.03;nan;102004.38;4986010;28;20097;-78
2021/11/18 10:12:22;;;;;;;16.52;10.02;;;;;;;8.08;nan;102004.91;4992517;28;20447;-78
2021/11/18 10:14:56;;;;;;;17.85;9.90;;;;;;;8.21;nan;102001.47;4990837;28;20110;-78
2021/11/18 10:17:30;;;;;;;16.90;10.00;;;;;;;8.29;nan;102005.31;4990208;28;20123;-78
2021/11/18 10:20:02;;;;;;;18.30;11.55;;;;;;;8.38;nan;102003.84;4992215;28;20110;-78
2021/11/18 10:22:30;;;;;;;16.80;10.48;;;;;;;8.43;nan;102008.84;4987468;28;20093;-77
2021/11/18 10:24:57;;;;;;;19.08;10.60;;;;;;;8.26;nan;102013.41;4990696;28;20045;-78
2021/11/18 10:27:32;;;;;;;16.70;10.70;;;;;;;8.28;nan;102018.59;4991917;28;21623;-78
2021/11/18 10:30:08;;;;;;;17.58;10.48;;;;;;;8.40;nan;102022.25;4990205;28;20046;-78
2021/11/18 10:32:49;;;;;;;22.85;12.13;;;;;;;8.52;nan;102016.16;4990173;28;20054;-78
2021/11/18 10:35:17;;;;;;;;;;;;;;;8.59;nan;102008.69;4985746;28;20030;-78
2021/11/18 10:37:48;;;;;;;18.88;9.50;;;;;;;8.71;nan;102002.59;4984985;28;20441;-78
2021/11/18 10:40:29;;;;;;;16.63;10.18;;;;;;;8.64;nan;102003.94;4989626;28;20775;-78
2021/11/18 10:43:21;;;;;;;18.08;10.57;;;;;;;8.81;nan;102008.91;4990791;28;20584;-78
2021/11/18 10:45:58;;;;;;;18.42;10.95;;;;;;;8.84;nan;102003.47;4986600;28;20046;-78
2021/11/18 10:48:36;;;;;;;20.42;11.02;;;;;;;8.92;nan;102009.03;4988015;28;20043;-78
2021/11/18 10:51:13;;;;;;;16.63;10.48;;;;;;;9.10;nan;102006.91;4989748;28;20044;-78
2021/11/18 10:53:47;;;;;;;18.90;11.73;;;;;;;9.17;nan;102003.88;4990722;28;20089;-78
2021/11/18 10:56:18;;;;;;;20.67;11.95;;;;;;;9.15;nan;102011.88;4993566;28;20061;-78
2021/11/18 10:58:47;;;;;;;21.48;11.02;;;;;;;9.09;nan;102005.25;4990716;28;20109;-78
2021/11/18 11:01:25;;;;;;;17.15;10.27;;;;;;;8.97;nan;101998.19;4998333;28;20038;-78
2021/11/18 11:03:52;;;;;;;18.00;10.45;;;;;;;8.98;nan;102004.28;4998396;28;20035;-78
2021/11/18 11:06:49;;;;;;;15.82;10.18;;;;;;;8.88;nan;102004.91;4990866;28;20030;-78
2021/11/18 11:09:17;;;;;;;18.58;10.75;;;;;;;8.74;nan;102010.28;4989287;28;20531;-78
2021/11/18 11:12:07;;;;;;;18.77;10.25;;;;;;;8.70;nan;102008.81;4990593;28;20439;-78
2021/11/18 11:14:49;;;;;;;18.85;10.30;;;;;;;8.88;nan;102010.19;4986458;28;20115;-77
2021/11/18 11:17:32;;;;;;;;;;;;;;;8.92;nan;102008.19;4993175;28;20045;-77
2021/11/18 11:20:17;;;;;;;16.95;9.82;;;;;;;8.91;nan;102001.22;4991006;28;19924;-78
2021/11/18 11:22:47;;;;;;;16.15;9.73;;;;;;;9.02;nan;101998.69;4989684;28;20038;-78
2021/11/18 11:25:32;;;;;;;17.27;10.30;;;;;;;9.19;nan;102009.91;4989113;28;20322;-78
2021/11/18 11:28:29;;;;;;;17.40;10.48;;;;;;;9.30;nan;101997.63;4987028;28;20034;-78
2021/11/18 11:31:22;;;;;;;16.45;10.10;;;;;;;9.49;nan;101997.19;4990062;28;20035;-78
2021/11/18 11:34:17;;;;;;;14.73;9.77;;;;;;;9.59;nan;102004.47;4989442;28;20401;-78
2021/11/18 11:37:06;;;;;;;17.55;10.38;;;;;;;9.64;nan;102000.53;5004487;28;20038;-78
2021/11/18 11:39:40;;;;;;;19.58;11.45;;;;;;;9.64;nan;101999.69;4989486;28;20034;-77
2021/11/18 11:42:30;;;;;;;16.58;10.73;;;;;;;9.63;nan;102004.13;4988156;28;20582;-77
2021/11/18 11:44:57;;;;;;;21.00;11.30;;;;;;;9.70;nan;101997.47;4982285;28;20047;-78